createdAt,value
2022-10-10T00:00:13.708Z,8.37
2022-10-10T00:01:13.777Z,8.37
2022-10-10T00:02:13.732Z,8.27
2022-10-10T00:03:13.674Z,8.39
2022-10-10T00:04:13.664Z,8.27
2022-10-10T00:05:13.680Z,8.32
2022-10-10T00:06:13.660Z,8.29
2022-10-10T00:07:13.693Z,8.28
2022-10-10T00:08:13.628Z,8.36
2022-10-10T00:09:13.609Z,8.28
2022-10-10T00:10:13.612Z,8.32
2022-10-10T00:11:13.598Z,8.34
2022-10-10T00:12:13.581Z,8.37
2022-10-10T00:13:13.570Z,8.39
2022-10-10T00:14:13.613Z,8.45
2022-10-10T00:15:13.547Z,8.45
2022-10-10T00:16:13.545Z,8.37
2022-10-10T00:17:13.540Z,8.45
2022-10-10T00:18:13.527Z,8.42
2022-10-10T00:19:13.503Z,8.31
2022-10-10T00:20:13.503Z,8.32
2022-10-10T00:21:13.507Z,8.40
2022-10-10T00:22:13.469Z,8.37
2022-10-10T00:23:13.462Z,8.34
2022-10-10T00:24:13.462Z,8.36
2022-10-10T00:25:13.441Z,8.43
2022-10-10T00:26:18.595Z,8.34
2022-10-10T00:27:14.426Z,8.47
2022-10-10T00:28:13.457Z,8.29
2022-10-10T00:29:13.405Z,8.42
2022-10-10T00:30:13.385Z,8.37
2022-10-10T00:31:13.379Z,8.29
2022-10-10T00:32:13.515Z,8.34
2022-10-10T00:33:13.464Z,8.39
2022-10-10T00:34:13.341Z,8.42
2022-10-10T00:35:13.333Z,8.46
2022-10-10T00:36:13.322Z,8.25
2022-10-10T00:37:13.334Z,8.28
2022-10-10T00:38:13.335Z,8.29
2022-10-10T00:39:13.298Z,8.32
2022-10-10T00:40:13.281Z,8.29
2022-10-10T00:41:13.272Z,8.25
2022-10-10T00:42:13.257Z,8.37
2022-10-10T00:43:13.257Z,8.36
2022-10-10T00:44:13.256Z,8.34
2022-10-10T00:45:13.224Z,8.36
2022-10-10T00:46:13.219Z,8.32
2022-10-10T00:47:13.204Z,8.29
2022-10-10T00:48:13.193Z,8.32
2022-10-10T00:49:13.185Z,8.32
2022-10-10T00:50:13.315Z,8.24
2022-10-10T00:51:13.162Z,8.32
2022-10-10T00:52:13.360Z,8.32
2022-10-10T00:53:13.162Z,8.32
2022-10-10T00:54:13.127Z,8.22
2022-10-10T00:55:13.116Z,8.27
2022-10-10T00:56:13.168Z,8.34
2022-10-10T00:57:13.094Z,8.34
2022-10-10T00:58:13.083Z,8.25
2022-10-10T00:59:13.073Z,8.34
2022-10-10T01:00:13.065Z,8.31
2022-10-10T01:01:13.114Z,8.43
2022-10-10T01:02:13.102Z,8.29
2022-10-10T01:03:13.031Z,8.43
2022-10-10T01:04:13.022Z,8.29
2022-10-10T01:05:13.010Z,8.27
2022-10-10T01:06:13.001Z,8.22
2022-10-10T01:07:13.002Z,8.39
2022-10-10T01:08:12.990Z,8.32
2022-10-10T01:09:13.025Z,8.46
2022-10-10T01:10:12.954Z,8.27
2022-10-10T01:11:12.946Z,8.40
2022-10-10T01:12:12.931Z,8.31
2022-10-10T01:13:13.030Z,8.36
2022-10-10T01:14:12.993Z,8.36
2022-10-10T01:15:12.906Z,8.29
2022-10-10T01:16:12.891Z,8.42
2022-10-10T01:17:12.880Z,8.45
2022-10-10T01:18:12.870Z,8.47
2022-10-10T01:19:12.871Z,8.29
2022-10-10T01:20:12.849Z,8.27
2022-10-10T01:21:12.881Z,8.39
2022-10-10T01:22:12.825Z,8.43
2022-10-10T01:23:12.818Z,8.49
2022-10-10T01:24:12.821Z,8.31
2022-10-10T01:25:12.819Z,8.31
2022-10-10T01:26:12.786Z,8.40
2022-10-10T01:27:12.839Z,8.49
2022-10-10T01:28:12.796Z,8.43
2022-10-10T01:29:12.749Z,8.40
2022-10-10T01:30:12.754Z,8.43
2022-10-10T01:31:12.738Z,8.49
2022-10-10T01:32:12.722Z,8.50
2022-10-10T01:33:12.744Z,8.49
2022-10-10T01:34:12.697Z,8.37
2022-10-10T01:35:12.684Z,8.43
2022-10-10T01:36:12.688Z,8.49
2022-10-10T01:37:12.664Z,8.37
2022-10-10T01:38:12.659Z,8.34
2022-10-10T01:39:12.664Z,8.39
2022-10-10T01:40:12.638Z,8.42
2022-10-10T01:41:12.731Z,8.37
2022-10-10T01:42:12.617Z,8.45
2022-10-10T01:43:12.632Z,8.40
2022-10-10T01:44:12.591Z,8.54
2022-10-10T01:45:12.619Z,8.40
2022-10-10T01:46:12.586Z,8.54
2022-10-10T01:47:12.566Z,8.36
2022-10-10T01:48:12.551Z,8.42
2022-10-10T01:49:12.611Z,8.47
2022-10-10T01:50:12.530Z,8.34
2022-10-10T01:51:12.515Z,8.29
2022-10-10T01:52:12.589Z,8.36
2022-10-10T01:53:12.506Z,8.43
2022-10-10T01:54:12.488Z,8.36
2022-10-10T01:55:12.473Z,8.27
2022-10-10T01:56:12.466Z,8.27
2022-10-10T01:57:12.609Z,8.42
2022-10-10T01:58:12.445Z,8.32
2022-10-10T01:59:12.431Z,8.31
2022-10-10T02:00:12.420Z,8.34
2022-10-10T02:01:12.465Z,8.22
2022-10-10T02:02:12.398Z,8.36
2022-10-10T02:03:12.502Z,8.21
2022-10-10T02:04:12.376Z,8.25
2022-10-10T02:05:12.364Z,8.21
2022-10-10T02:06:12.355Z,8.14
2022-10-10T02:07:12.343Z,8.21
2022-10-10T02:08:12.331Z,8.27
2022-10-10T02:09:12.410Z,8.24
2022-10-10T02:10:12.312Z,8.20
2022-10-10T02:11:12.299Z,8.24
2022-10-10T02:12:12.292Z,8.24
2022-10-10T02:13:12.319Z,8.20
2022-10-10T02:14:12.268Z,8.21
2022-10-10T02:15:12.259Z,8.21
2022-10-10T02:16:12.244Z,8.06
2022-10-10T02:17:12.232Z,8.13
2022-10-10T02:18:12.222Z,8.09
2022-10-10T02:19:12.634Z,8.17
2022-10-10T02:20:12.200Z,8.09
2022-10-10T02:21:12.201Z,8.14
2022-10-10T02:22:12.179Z,8.02
2022-10-10T02:23:12.170Z,8.03
2022-10-10T02:24:12.166Z,8.09
2022-10-10T02:25:12.164Z,8.04
2022-10-10T02:26:12.131Z,8.02
2022-10-10T02:27:12.186Z,8.00
2022-10-10T02:28:12.187Z,7.99
2022-10-10T02:29:12.131Z,8.02
2022-10-10T02:30:12.094Z,8.02
2022-10-10T02:31:12.092Z,7.99
2022-10-10T02:32:12.070Z,7.85
2022-10-10T02:33:12.126Z,7.94
2022-10-10T02:34:12.081Z,7.89
2022-10-10T02:35:12.039Z,7.88
2022-10-10T02:36:12.027Z,7.86
2022-10-10T02:37:12.016Z,7.86
2022-10-10T02:38:12.015Z,7.88
2022-10-10T02:39:12.054Z,7.92
2022-10-10T02:40:11.994Z,7.85
2022-10-10T02:41:11.971Z,7.82
2022-10-10T02:42:11.959Z,7.71
2022-10-10T02:43:11.949Z,7.84
2022-10-10T02:44:11.943Z,7.71
2022-10-10T02:45:11.980Z,7.91
2022-10-10T02:46:11.925Z,7.86
2022-10-10T02:47:11.911Z,7.67
2022-10-10T02:48:11.894Z,7.73
2022-10-10T02:49:11.887Z,7.81
2022-10-10T02:50:11.879Z,7.88
2022-10-10T02:51:11.928Z,7.77
2022-10-10T02:52:11.850Z,7.70
2022-10-10T02:53:11.858Z,7.73
2022-10-10T02:54:11.828Z,7.66
2022-10-10T02:55:11.817Z,7.62
2022-10-10T02:56:11.804Z,7.79
2022-10-10T02:57:11.866Z,7.76
2022-10-10T02:58:11.785Z,7.76
2022-10-10T02:59:11.773Z,7.79
2022-10-10T03:00:11.776Z,7.77
2022-10-10T03:01:11.857Z,7.73
2022-10-10T03:02:11.751Z,7.74
2022-10-10T03:03:11.800Z,7.76
2022-10-10T03:04:11.722Z,7.66
2022-10-10T03:05:11.708Z,7.77
2022-10-10T03:06:11.703Z,7.71
2022-10-10T03:07:11.687Z,7.67
2022-10-10T03:08:12.046Z,7.67
2022-10-10T03:09:11.672Z,7.69
2022-10-10T03:10:11.663Z,7.67
2022-10-10T03:11:11.642Z,7.71
2022-10-10T03:12:11.633Z,7.74
2022-10-10T03:13:11.619Z,7.66
2022-10-10T03:14:11.610Z,7.69
2022-10-10T03:15:12.191Z,7.73
2022-10-10T03:16:11.603Z,7.60
2022-10-10T03:17:11.602Z,7.71
2022-10-10T03:18:11.565Z,7.57
2022-10-10T03:19:11.596Z,7.58
2022-10-10T03:20:11.544Z,7.60
2022-10-10T03:21:11.584Z,7.67
2022-10-10T03:22:11.534Z,7.63
2022-10-10T03:23:11.511Z,7.67
2022-10-10T03:24:11.502Z,7.63
2022-10-10T03:25:11.501Z,7.62
2022-10-10T03:26:11.480Z,7.57
2022-10-10T03:27:11.568Z,7.57
2022-10-10T03:28:11.501Z,7.54
2022-10-10T03:29:11.449Z,7.60
2022-10-10T03:30:11.445Z,7.57
2022-10-10T03:31:11.427Z,7.57
2022-10-10T03:32:11.410Z,7.57
2022-10-10T03:33:11.463Z,7.57
2022-10-10T03:34:11.390Z,7.57
2022-10-10T03:35:11.379Z,7.60
2022-10-10T03:36:11.378Z,7.66
2022-10-10T03:37:11.357Z,7.57
2022-10-10T03:38:11.348Z,7.55
2022-10-10T03:39:11.393Z,7.50
2022-10-10T03:40:11.328Z,7.51
2022-10-10T03:41:11.420Z,7.62
2022-10-10T03:42:11.305Z,7.50
2022-10-10T03:43:11.290Z,7.50
2022-10-10T03:44:11.287Z,7.50
2022-10-10T03:45:11.321Z,7.50
2022-10-10T03:46:15.832Z,7.60
2022-10-10T03:47:12.260Z,7.51
2022-10-10T03:48:11.237Z,7.51
2022-10-10T03:49:11.251Z,7.55
2022-10-10T03:50:11.219Z,7.66
2022-10-10T03:51:11.263Z,7.51
2022-10-10T03:52:11.208Z,7.50
2022-10-10T03:53:11.182Z,7.51
2022-10-10T03:54:11.178Z,7.62
2022-10-10T03:55:11.161Z,7.60
2022-10-10T03:56:11.154Z,7.60
2022-10-10T03:57:11.240Z,7.55
2022-10-10T03:58:11.143Z,7.50
2022-10-10T03:59:11.116Z,7.67
2022-10-10T04:00:11.122Z,7.51
2022-10-10T04:01:11.109Z,7.55
2022-10-10T04:02:11.085Z,7.60
2022-10-10T04:03:11.245Z,7.54
2022-10-10T04:04:11.061Z,7.60
2022-10-10T04:05:11.081Z,7.66
2022-10-10T04:06:11.042Z,7.57
2022-10-10T04:07:11.031Z,7.47
2022-10-10T04:08:11.028Z,7.55
2022-10-10T04:09:11.085Z,7.60
2022-10-10T04:10:10.995Z,7.55
2022-10-10T04:11:10.991Z,7.63
2022-10-10T04:12:10.984Z,7.55
2022-10-10T04:13:10.964Z,7.66
2022-10-10T04:14:10.966Z,7.60
2022-10-10T04:15:10.993Z,7.55
2022-10-10T04:16:10.929Z,7.62
2022-10-10T04:17:10.923Z,7.63
2022-10-10T04:18:10.909Z,7.54
2022-10-10T04:19:10.896Z,7.58
2022-10-10T04:20:10.896Z,7.60
2022-10-10T04:21:10.909Z,7.57
2022-10-10T04:22:11.356Z,7.63
2022-10-10T04:23:10.869Z,7.54
2022-10-10T04:24:10.846Z,7.54
2022-10-10T04:25:10.831Z,7.58
2022-10-10T04:26:10.822Z,7.66
2022-10-10T04:27:10.881Z,7.58
2022-10-10T04:28:10.860Z,7.63
2022-10-10T04:29:10.803Z,7.57
2022-10-10T04:30:10.778Z,7.60
2022-10-10T04:31:10.769Z,7.63
2022-10-10T04:32:10.754Z,7.73
2022-10-10T04:33:10.746Z,7.69
2022-10-10T04:34:10.733Z,7.73
2022-10-10T04:35:10.736Z,7.73
2022-10-10T04:36:10.715Z,7.71
2022-10-10T04:37:10.747Z,7.69
2022-10-10T04:38:10.690Z,7.67
2022-10-10T04:39:10.758Z,7.69
2022-10-10T04:40:10.670Z,7.73
2022-10-10T04:41:10.672Z,7.77
2022-10-10T04:42:10.646Z,7.71
2022-10-10T04:43:10.636Z,7.73
2022-10-10T04:44:10.625Z,7.76
2022-10-10T04:45:10.647Z,7.67
2022-10-10T04:46:10.604Z,7.67
2022-10-10T04:47:10.596Z,7.70
2022-10-10T04:48:10.583Z,7.71
2022-10-10T04:49:10.576Z,7.74
2022-10-10T04:50:10.563Z,7.81
2022-10-10T04:51:10.652Z,7.76
2022-10-10T04:52:10.537Z,7.76
2022-10-10T04:53:10.563Z,7.71
2022-10-10T04:54:10.516Z,7.77
2022-10-10T04:55:10.508Z,7.67
2022-10-10T04:56:10.508Z,7.86
2022-10-10T04:57:10.493Z,7.66
2022-10-10T04:58:10.538Z,7.77
2022-10-10T04:59:10.460Z,7.70
2022-10-10T05:00:10.449Z,7.79
2022-10-10T05:01:10.509Z,7.73
2022-10-10T05:02:10.439Z,7.74
2022-10-10T05:03:10.465Z,7.88
2022-10-10T05:04:10.474Z,7.82
2022-10-10T05:05:10.616Z,7.77
2022-10-10T05:06:10.382Z,7.85
2022-10-10T05:07:10.372Z,7.70
2022-10-10T05:08:10.364Z,7.89
2022-10-10T05:09:10.386Z,7.76
2022-10-10T05:10:10.397Z,7.88
2022-10-10T05:11:10.541Z,7.82
2022-10-10T05:12:10.320Z,7.81
2022-10-10T05:13:10.316Z,7.76
2022-10-10T05:14:10.297Z,7.77
2022-10-10T05:15:10.302Z,7.96
2022-10-10T05:16:10.341Z,7.84
2022-10-10T05:17:10.264Z,7.89
2022-10-10T05:18:10.258Z,7.88
2022-10-10T05:19:10.259Z,7.84
2022-10-10T05:20:10.233Z,7.73
2022-10-10T05:21:10.221Z,7.85
2022-10-10T05:22:10.315Z,7.82
2022-10-10T05:23:10.200Z,7.74
2022-10-10T05:24:10.188Z,7.86
2022-10-10T05:25:10.202Z,7.86
2022-10-10T05:26:10.175Z,7.91
2022-10-10T05:27:10.153Z,7.85
2022-10-10T05:28:10.236Z,7.85
2022-10-10T05:29:10.134Z,7.79
2022-10-10T05:30:10.123Z,7.92
2022-10-10T05:31:10.123Z,7.81
2022-10-10T05:32:10.722Z,7.92
2022-10-10T05:33:10.093Z,7.89
2022-10-10T05:34:10.169Z,7.84
2022-10-10T05:35:10.068Z,7.91
2022-10-10T05:36:10.062Z,7.84
2022-10-10T05:37:10.153Z,7.82
2022-10-10T05:38:10.038Z,7.85
2022-10-10T05:39:10.027Z,7.88
2022-10-10T05:40:10.075Z,7.92
2022-10-10T05:41:10.030Z,7.96
2022-10-10T05:42:09.992Z,7.86
2022-10-10T05:43:09.997Z,7.89
2022-10-10T05:44:09.972Z,7.92
2022-10-10T05:45:09.965Z,7.91
2022-10-10T05:46:10.020Z,7.85
2022-10-10T05:47:09.938Z,7.85
2022-10-10T05:48:09.928Z,7.81
2022-10-10T05:49:09.916Z,7.92
2022-10-10T05:50:09.907Z,7.88
2022-10-10T05:51:09.904Z,7.84
2022-10-10T05:52:09.956Z,7.85
2022-10-10T05:53:09.882Z,7.84
2022-10-10T05:54:09.871Z,7.85
2022-10-10T05:55:09.849Z,7.89
2022-10-10T05:56:09.838Z,7.89
2022-10-10T05:57:15.358Z,7.91
2022-10-10T05:58:10.889Z,7.85
2022-10-10T05:59:09.811Z,7.95
2022-10-10T06:00:09.792Z,7.96
2022-10-10T06:01:09.784Z,7.95
2022-10-10T06:02:09.788Z,8.02
2022-10-10T06:03:09.762Z,8.02
2022-10-10T06:04:09.828Z,7.94
2022-10-10T06:05:09.736Z,7.96
2022-10-10T06:06:09.731Z,7.99
2022-10-10T06:07:09.717Z,8.07
2022-10-10T06:08:12.069Z,8.06
2022-10-10T06:09:09.708Z,8.00
2022-10-10T06:10:09.695Z,8.06
2022-10-10T06:11:09.675Z,8.02
2022-10-10T06:12:09.669Z,8.04
2022-10-10T06:13:09.690Z,8.06
2022-10-10T06:14:09.652Z,8.09
2022-10-10T06:15:09.647Z,8.18
2022-10-10T06:16:09.623Z,8.24
2022-10-10T06:17:09.610Z,8.17
2022-10-10T06:18:09.601Z,8.32
2022-10-10T06:19:14.637Z,8.29
2022-10-10T06:20:10.591Z,8.17
2022-10-10T06:21:09.565Z,8.22
2022-10-10T06:22:09.568Z,8.27
2022-10-10T06:23:09.564Z,8.29
2022-10-10T06:24:09.534Z,8.31
2022-10-10T06:25:23.887Z,8.32
2022-10-10T06:26:10.508Z,8.39
2022-10-10T06:27:09.506Z,8.31
2022-10-10T06:28:09.630Z,8.42
2022-10-10T06:29:09.591Z,8.31
2022-10-10T06:30:09.472Z,8.36
2022-10-10T06:31:09.461Z,8.40
2022-10-10T06:32:09.452Z,8.36
2022-10-10T06:33:09.446Z,8.40
2022-10-10T06:34:09.514Z,8.37
2022-10-10T06:35:09.412Z,8.57
2022-10-10T06:36:09.403Z,8.46
2022-10-10T06:37:09.389Z,8.42
2022-10-10T06:38:09.394Z,8.43
2022-10-10T06:39:09.367Z,8.55
2022-10-10T06:40:09.370Z,8.57
2022-10-10T06:41:09.362Z,8.52
2022-10-10T06:42:09.338Z,8.61
2022-10-10T06:43:09.323Z,8.52
2022-10-10T06:44:09.315Z,8.61
2022-10-10T06:45:09.333Z,8.63
2022-10-10T06:46:09.302Z,8.57
2022-10-10T06:47:09.287Z,8.71
2022-10-10T06:48:09.269Z,8.67
2022-10-10T06:49:09.259Z,8.71
2022-10-10T06:50:09.247Z,8.75
2022-10-10T06:51:09.248Z,8.79
2022-10-10T06:52:09.227Z,8.76
2022-10-10T06:53:09.231Z,8.85
2022-10-10T06:54:09.206Z,8.82
2022-10-10T06:55:09.193Z,8.93
2022-10-10T06:56:09.186Z,8.96
2022-10-10T06:57:09.182Z,8.96
2022-10-10T06:58:09.162Z,8.93
2022-10-10T06:59:09.208Z,8.97
2022-10-10T07:00:09.140Z,9.03
2022-10-10T07:01:09.157Z,9.13
2022-10-10T07:02:09.120Z,9.13
2022-10-10T07:03:09.123Z,9.17
2022-10-10T07:04:09.103Z,9.10
2022-10-10T07:05:09.100Z,9.06
2022-10-10T07:06:09.076Z,8.94
2022-10-10T07:07:09.064Z,9.03
2022-10-10T07:08:09.054Z,9.13
2022-10-10T07:09:09.063Z,9.08
2022-10-10T07:10:09.035Z,9.15
2022-10-10T07:11:09.095Z,9.19
2022-10-10T07:12:09.013Z,9.19
2022-10-10T07:13:09.018Z,9.30
2022-10-10T07:14:08.996Z,9.37
2022-10-10T07:15:08.980Z,9.27
2022-10-10T07:16:08.983Z,9.40
2022-10-10T07:17:09.030Z,9.37
2022-10-10T07:18:08.950Z,9.30
2022-10-10T07:19:08.933Z,9.27
2022-10-10T07:20:08.927Z,9.23
2022-10-10T07:21:08.941Z,9.30
2022-10-10T07:22:08.902Z,9.34
2022-10-10T07:23:09.000Z,9.22
2022-10-10T07:24:08.880Z,9.34
2022-10-10T07:25:08.878Z,9.35
2022-10-10T07:26:08.874Z,9.35
2022-10-10T07:27:09.067Z,9.35
2022-10-10T07:28:08.905Z,9.22
2022-10-10T07:29:08.901Z,9.35
2022-10-10T07:30:08.816Z,9.34
2022-10-10T07:31:08.811Z,9.38
2022-10-10T07:32:08.802Z,9.38
2022-10-10T07:33:08.811Z,9.49
2022-10-10T07:34:08.783Z,9.56
2022-10-10T07:35:08.825Z,9.45
2022-10-10T07:36:08.754Z,9.67
2022-10-10T07:37:08.742Z,9.56
2022-10-10T07:38:08.727Z,9.62
2022-10-10T07:39:08.721Z,9.59
2022-10-10T07:40:08.718Z,9.59
2022-10-10T07:41:08.752Z,9.70
2022-10-10T07:42:08.690Z,9.75
2022-10-10T07:43:08.706Z,9.85
2022-10-10T07:44:08.666Z,9.83
2022-10-10T07:45:08.763Z,9.83
2022-10-10T07:46:11.423Z,9.98
2022-10-10T07:47:08.724Z,9.98
2022-10-10T07:48:08.619Z,9.98
2022-10-10T07:49:08.633Z,10.07
2022-10-10T07:50:08.599Z,10.17
2022-10-10T07:51:08.598Z,10.11
2022-10-10T07:52:08.574Z,10.11
2022-10-10T07:53:08.617Z,10.29
2022-10-10T07:54:08.553Z,10.22
2022-10-10T07:55:08.573Z,10.29
2022-10-10T07:56:08.539Z,10.31
2022-10-10T07:57:08.515Z,10.42
2022-10-10T07:58:08.616Z,10.42
2022-10-10T07:59:08.498Z,10.43
2022-10-10T08:00:08.488Z,10.52
2022-10-10T08:01:08.488Z,10.43
2022-10-10T08:02:08.587Z,10.51
2022-10-10T08:03:11.773Z,10.46
2022-10-10T08:04:08.471Z,10.69
2022-10-10T08:05:08.495Z,11.16
2022-10-10T08:06:08.427Z,11.54
2022-10-10T08:07:08.419Z,11.60
2022-10-10T08:08:08.408Z,11.54
2022-10-10T08:09:08.398Z,11.38
2022-10-10T08:10:08.448Z,11.49
2022-10-10T08:11:08.366Z,11.93
2022-10-10T08:12:08.459Z,12.46
2022-10-10T08:13:08.344Z,12.70
2022-10-10T08:14:08.330Z,12.56
2022-10-10T08:15:08.414Z,12.92
2022-10-10T08:16:08.366Z,12.87
2022-10-10T08:17:08.302Z,13.13
2022-10-10T08:18:08.304Z,13.16
2022-10-10T08:19:08.340Z,13.39
2022-10-10T08:20:08.274Z,13.43
2022-10-10T08:21:08.279Z,13.44
2022-10-10T08:22:08.293Z,13.36
2022-10-10T08:23:08.239Z,13.65
2022-10-10T08:24:08.226Z,13.46
2022-10-10T08:25:08.210Z,13.44
2022-10-10T08:26:08.217Z,13.46
2022-10-10T08:27:08.192Z,13.39
2022-10-10T08:28:08.263Z,13.43
2022-10-10T08:29:08.243Z,13.19
2022-10-10T08:30:08.158Z,13.16
2022-10-10T08:31:08.155Z,13.12
2022-10-10T08:32:08.145Z,13.36
2022-10-10T08:33:08.125Z,13.50
2022-10-10T08:34:08.128Z,13.98
2022-10-10T08:35:08.157Z,14.12
2022-10-10T08:36:08.095Z,13.84
2022-10-10T08:37:08.119Z,13.69
2022-10-10T08:38:08.072Z,13.66
2022-10-10T08:39:08.095Z,13.50
2022-10-10T08:40:08.051Z,13.53
2022-10-10T08:41:08.118Z,13.21
2022-10-10T08:42:08.036Z,12.92
2022-10-10T08:43:08.017Z,12.84
2022-10-10T08:44:08.009Z,12.71
2022-10-10T08:45:07.994Z,12.71
2022-10-10T08:46:07.987Z,12.79
2022-10-10T08:47:08.019Z,12.80
2022-10-10T08:48:07.966Z,12.71
2022-10-10T08:49:11.763Z,12.69
2022-10-10T08:50:08.940Z,12.73
2022-10-10T08:51:07.981Z,12.54
2022-10-10T08:52:07.919Z,12.67
2022-10-10T08:53:07.934Z,12.74
2022-10-10T08:54:07.899Z,12.52
2022-10-10T08:55:07.883Z,12.58
2022-10-10T08:56:07.884Z,12.55
2022-10-10T08:57:07.865Z,12.43
2022-10-10T08:58:07.862Z,12.52
2022-10-10T08:59:07.925Z,12.55
2022-10-10T09:00:07.851Z,12.58
2022-10-10T09:01:08.130Z,12.37
2022-10-10T09:02:18.278Z,12.44
2022-10-10T09:03:08.795Z,12.38
2022-10-10T09:04:07.784Z,12.56
2022-10-10T09:05:07.845Z,12.54
2022-10-10T09:06:07.788Z,12.61
2022-10-10T09:07:07.759Z,12.70
2022-10-10T09:08:07.746Z,12.73
2022-10-10T09:09:07.760Z,12.81
2022-10-10T09:10:07.722Z,12.87
2022-10-10T09:11:07.716Z,13.03
2022-10-10T09:12:07.718Z,12.94
2022-10-10T09:13:07.693Z,12.73
2022-10-10T09:14:07.718Z,12.63
2022-10-10T09:15:07.678Z,12.73
2022-10-10T09:16:07.653Z,12.79
2022-10-10T09:17:07.744Z,12.66
2022-10-10T09:18:07.635Z,12.87
2022-10-10T09:19:07.648Z,12.88
2022-10-10T09:20:07.632Z,12.81
2022-10-10T09:21:07.607Z,12.74
2022-10-10T09:22:07.591Z,12.84
2022-10-10T09:23:07.601Z,12.87
2022-10-10T09:24:07.570Z,13.22
2022-10-10T09:25:07.591Z,13.21
2022-10-10T09:26:11.382Z,13.39
2022-10-10T09:27:07.540Z,13.17
2022-10-10T09:28:07.626Z,13.16
2022-10-10T09:29:07.516Z,13.10
2022-10-10T09:30:07.521Z,13.25
2022-10-10T09:31:07.500Z,13.63
2022-10-10T09:32:07.483Z,13.59
2022-10-10T09:33:07.482Z,13.76
2022-10-10T09:34:07.517Z,14.04
2022-10-10T09:35:07.462Z,13.69
2022-10-10T09:36:07.446Z,13.61
2022-10-10T09:37:07.436Z,13.47
2022-10-10T09:38:07.417Z,13.19
2022-10-10T09:39:07.408Z,13.44
2022-10-10T09:40:07.399Z,13.61
2022-10-10T09:41:07.425Z,13.72
2022-10-10T09:42:07.369Z,13.61
2022-10-10T09:43:10.683Z,13.73
2022-10-10T09:44:07.350Z,13.69
2022-10-10T09:45:07.344Z,13.84
2022-10-10T09:46:07.331Z,14.06
2022-10-10T09:47:07.336Z,14.21
2022-10-10T09:48:14.849Z,14.31
2022-10-10T09:49:07.302Z,14.52
2022-10-10T09:50:07.301Z,14.53
2022-10-10T09:51:07.274Z,14.78
2022-10-10T09:52:07.266Z,14.85
2022-10-10T09:53:07.259Z,14.79
2022-10-10T09:54:08.042Z,14.72
2022-10-10T09:55:07.273Z,14.80
2022-10-10T09:56:07.228Z,15.40
2022-10-10T09:57:07.235Z,15.49
2022-10-10T09:58:07.254Z,15.70
2022-10-10T09:59:07.190Z,15.41
2022-10-10T10:00:07.187Z,15.15
2022-10-10T10:01:07.203Z,15.30
2022-10-10T10:02:09.828Z,15.66
2022-10-10T10:03:07.145Z,15.84
2022-10-10T10:04:23.517Z,16.08
2022-10-10T10:05:08.118Z,16.44
2022-10-10T10:06:07.115Z,16.29
2022-10-10T10:07:07.161Z,16.29
2022-10-10T10:08:07.091Z,15.86
2022-10-10T10:09:07.078Z,15.46
2022-10-10T10:10:07.148Z,15.58
2022-10-10T10:11:07.066Z,15.56
2022-10-10T10:12:07.056Z,15.60
2022-10-10T10:13:07.066Z,15.78
2022-10-10T10:14:07.541Z,15.60
2022-10-10T10:15:07.035Z,15.48
2022-10-10T10:16:07.004Z,15.70
2022-10-10T10:17:07.010Z,15.96
2022-10-10T10:18:06.979Z,15.89
2022-10-10T10:19:06.970Z,16.26
2022-10-10T10:20:10.732Z,16.37
2022-10-10T10:21:06.948Z,16.37
2022-10-10T10:22:06.936Z,16.27
2022-10-10T10:23:07.030Z,15.99
2022-10-10T10:24:06.916Z,16.17
2022-10-10T10:25:06.909Z,16.03
2022-10-10T10:26:06.894Z,15.96
2022-10-10T10:27:06.901Z,15.40
2022-10-10T10:28:06.891Z,15.09
2022-10-10T10:29:06.887Z,14.85
2022-10-10T10:30:06.879Z,14.86
2022-10-10T10:31:06.841Z,14.80
2022-10-10T10:32:06.829Z,14.98
2022-10-10T10:33:06.837Z,15.03
2022-10-10T10:34:06.811Z,15.30
2022-10-10T10:35:06.801Z,15.25
2022-10-10T10:36:06.797Z,15.00
2022-10-10T10:37:08.646Z,14.85
2022-10-10T10:38:06.764Z,14.94
2022-10-10T10:39:06.821Z,14.93
2022-10-10T10:40:06.742Z,15.04
2022-10-10T10:41:06.730Z,15.15
2022-10-10T10:42:06.734Z,15.19
2022-10-10T10:43:06.713Z,15.27
2022-10-10T10:44:06.725Z,15.37
2022-10-10T10:45:06.789Z,15.25
2022-10-10T10:46:06.698Z,15.52
2022-10-10T10:47:06.726Z,15.88
2022-10-10T10:48:06.669Z,15.68
2022-10-10T10:49:06.643Z,15.56
2022-10-10T10:50:06.661Z,15.68
2022-10-10T10:51:06.624Z,15.96
2022-10-10T10:52:06.614Z,16.29
2022-10-10T10:53:06.601Z,16.48
2022-10-10T10:54:06.598Z,16.55
2022-10-10T10:55:06.581Z,16.67
2022-10-10T10:56:06.577Z,16.55
2022-10-10T10:57:07.167Z,16.66
2022-10-10T10:59:31.885Z,16.18
2022-10-10T11:00:20.896Z,16.18
2022-10-10T11:01:33.724Z,16.42
2022-10-10T11:02:08.150Z,16.33
2022-10-10T11:03:27.743Z,16.18
2022-10-10T11:05:20.844Z,16.13
2022-10-10T11:05:21.394Z,15.74
2022-10-10T11:06:07.757Z,15.60
2022-10-10T11:07:18.327Z,15.64
2022-10-10T11:08:07.446Z,15.81
2022-10-10T11:09:06.424Z,16.01
2022-10-10T11:10:06.414Z,15.80
2022-10-10T11:11:06.403Z,15.56
2022-10-10T11:12:06.392Z,15.67
2022-10-10T11:13:06.385Z,15.35
2022-10-10T11:14:06.382Z,15.37
2022-10-10T11:15:06.359Z,15.43
2022-10-10T11:16:09.934Z,15.55
2022-10-10T11:17:07.412Z,15.15
2022-10-10T11:18:06.330Z,15.28
2022-10-10T11:19:06.338Z,15.52
2022-10-10T11:20:06.303Z,15.73
2022-10-10T11:21:06.297Z,15.95
2022-10-10T11:22:06.282Z,16.48
2022-10-10T11:23:08.993Z,16.77
2022-10-10T11:24:06.263Z,17.06
2022-10-10T11:25:06.246Z,17.14
2022-10-10T11:26:06.238Z,17.10
2022-10-10T11:27:06.238Z,17.65
2022-10-10T11:28:06.304Z,17.73
2022-10-10T11:29:06.260Z,17.45
2022-10-10T11:30:06.197Z,16.92
2022-10-10T11:31:06.188Z,16.73
2022-10-10T11:32:06.211Z,16.69
2022-10-10T11:33:06.181Z,16.32
2022-10-10T11:34:06.151Z,16.52
2022-10-10T11:35:06.140Z,16.62
2022-10-10T11:36:06.132Z,16.66
2022-10-10T11:37:06.117Z,17.22
2022-10-10T11:38:06.118Z,17.54
2022-10-10T11:39:06.093Z,17.71
2022-10-10T11:40:06.084Z,17.84
2022-10-10T11:41:06.149Z,17.55
2022-10-10T11:42:06.066Z,17.18
2022-10-10T11:43:06.106Z,17.76
2022-10-10T11:44:06.054Z,17.63
2022-10-10T11:45:06.033Z,18.04
2022-10-10T11:46:06.311Z,18.11
2022-10-10T11:47:06.010Z,18.60
2022-10-10T11:48:05.994Z,18.79
2022-10-10T11:49:06.013Z,19.01
2022-10-10T11:50:05.979Z,19.24
2022-10-10T11:51:05.972Z,19.40
2022-10-10T11:52:31.977Z,18.86
2022-10-10T11:53:06.941Z,18.34
2022-10-10T11:54:05.942Z,17.80
2022-10-10T11:55:05.940Z,17.66
2022-10-10T11:56:05.915Z,18.02
2022-10-10T11:57:06.724Z,18.11
2022-10-10T11:58:05.889Z,18.07
2022-10-10T11:59:05.884Z,18.13
2022-10-10T12:00:05.886Z,17.86
2022-10-10T12:01:05.858Z,17.81
2022-10-10T12:02:05.851Z,17.71
2022-10-10T12:03:05.838Z,17.71
2022-10-10T12:04:05.839Z,17.68
2022-10-10T12:05:05.840Z,17.83
2022-10-10T12:06:05.815Z,17.55
2022-10-10T12:07:05.795Z,17.14
2022-10-10T12:08:05.793Z,16.98
2022-10-10T12:09:05.783Z,16.85
2022-10-10T12:10:05.761Z,16.52
2022-10-10T12:11:05.753Z,16.42
2022-10-10T12:12:05.753Z,16.33
2022-10-10T12:13:05.731Z,16.32
2022-10-10T12:14:05.727Z,16.18
2022-10-10T12:15:05.707Z,16.13
2022-10-10T12:16:06.102Z,16.08
2022-10-10T12:17:05.696Z,16.04
2022-10-10T12:18:05.687Z,16.03
2022-10-10T12:19:05.662Z,15.91
2022-10-10T12:20:05.654Z,15.93
2022-10-10T12:21:05.674Z,15.80
2022-10-10T12:22:05.667Z,15.88
2022-10-10T12:23:05.620Z,15.85
2022-10-10T12:24:05.617Z,15.85
2022-10-10T12:25:05.605Z,15.71
2022-10-10T12:26:05.583Z,15.71
2022-10-10T12:27:05.588Z,15.91
2022-10-10T12:28:05.716Z,15.76
2022-10-10T12:29:05.568Z,15.68
2022-10-10T12:30:05.551Z,15.59
2022-10-10T12:31:05.923Z,15.59
2022-10-10T12:32:05.518Z,15.64
2022-10-10T12:33:05.515Z,15.62
2022-10-10T12:34:05.544Z,15.70
2022-10-10T12:35:05.502Z,15.58
2022-10-10T12:36:05.490Z,15.56
2022-10-10T12:37:07.564Z,15.31
2022-10-10T12:38:05.902Z,15.31
2022-10-10T12:39:05.448Z,15.25
2022-10-10T12:40:05.446Z,15.33
2022-10-10T12:41:05.420Z,15.35
2022-10-10T12:42:05.409Z,15.19
2022-10-10T12:43:05.397Z,15.16
2022-10-10T12:44:05.387Z,15.16
2022-10-10T12:45:05.372Z,15.11
2022-10-10T12:46:05.375Z,15.15
2022-10-10T12:47:06.841Z,15.18
2022-10-10T12:48:06.940Z,15.11
2022-10-10T12:49:05.343Z,15.09
2022-10-10T12:50:05.323Z,15.00
2022-10-10T12:51:05.706Z,15.00
2022-10-10T12:52:05.296Z,14.90
2022-10-10T12:53:05.311Z,14.72
2022-10-10T12:54:05.285Z,14.78
2022-10-10T12:55:06.860Z,14.71
2022-10-10T12:56:05.320Z,14.52
2022-10-10T12:57:05.313Z,14.59
2022-10-10T12:58:05.229Z,14.52
2022-10-10T12:59:05.222Z,14.48
2022-10-10T13:00:05.269Z,14.53
2022-10-10T13:01:05.662Z,14.53
2022-10-10T13:02:05.264Z,14.42
2022-10-10T13:03:05.178Z,14.46
2022-10-10T13:04:05.174Z,14.41
2022-10-10T13:05:05.155Z,14.49
2022-10-10T13:06:05.165Z,14.52
2022-10-10T13:07:05.144Z,14.48
2022-10-10T13:08:05.187Z,14.54